sensor_id;sensor_type;location;lat;lon;timestamp;P1;durP1;ratioP1;P2;durP2;ratioP2
37164;SDS011;23057;48.554;14.454;2022-12-18T00:01:56;6.00;;;4.45;;
37164;SDS011;23057;48.554;14.454;2022-12-18T00:04:29;5.10;;;3.83;;
37164;SDS011;23057;48.554;14.454;2022-12-18T00:07:00;13.35;;;6.45;;
37164;SDS011;23057;48.554;14.454;2022-12-18T00:09:31;11.15;;;5.32;;
37164;SDS011;23057;48.554;14.454;2022-12-18T00:12:02;18.00;;;7.40;;
37164;SDS011;23057;48.554;14.454;2022-12-18T00:14:33;11.82;;;4.85;;
37164;SDS011;23057;48.554;14.454;2022-12-18T00:17:04;12.95;;;5.65;;
37164;SDS011;23057;48.554;14.454;2022-12-18T00:19:35;10.85;;;6.95;;
37164;SDS011;23057;48.554;14.454;2022-12-18T00:22:06;13.98;;;5.72;;
37164;SDS011;23057;48.554;14.454;2022-12-18T00:24:37;11.57;;;5.75;;
37164;SDS011;23057;48.554;14.454;2022-12-18T00:27:07;19.98;;;7.47;;
37164;SDS011;23057;48.554;14.454;2022-12-18T00:29:38;12.60;;;5.40;;
37164;SDS011;23057;48.554;14.454;2022-12-18T00:32:09;7.03;;;5.32;;
37164;SDS011;23057;48.554;14.454;2022-12-18T00:34:40;10.45;;;5.53;;
37164;SDS011;23057;48.554;14.454;2022-12-18T00:37:11;9.25;;;5.53;;
37164;SDS011;23057;48.554;14.454;2022-12-18T00:39:41;14.15;;;6.72;;
37164;SDS011;23057;48.554;14.454;2022-12-18T00:42:12;6.65;;;4.45;;
37164;SDS011;23057;48.554;14.454;2022-12-18T00:45:02;15.10;;;5.45;;
37164;SDS011;23057;48.554;14.454;2022-12-18T00:47:33;10.65;;;4.47;;
37164;SDS011;23057;48.554;14.454;2022-12-18T00:50:04;6.75;;;5.53;;
37164;SDS011;23057;48.554;14.454;2022-12-18T00:52:36;7.55;;;4.05;;
37164;SDS011;23057;48.554;14.454;2022-12-18T00:55:07;15.70;;;7.38;;
37164;SDS011;23057;48.554;14.454;2022-12-18T00:57:39;13.05;;;6.40;;
37164;SDS011;23057;48.554;14.454;2022-12-18T01:00:12;13.48;;;6.20;;
37164;SDS011;23057;48.554;14.454;2022-12-18T01:02:45;7.65;;;4.50;;
37164;SDS011;23057;48.554;14.454;2022-12-18T01:05:16;6.07;;;3.92;;
37164;SDS011;23057;48.554;14.454;2022-12-18T01:07:47;8.98;;;5.90;;
37164;SDS011;23057;48.554;14.454;2022-12-18T01:10:17;6.78;;;5.78;;
37164;SDS011;23057;48.554;14.454;2022-12-18T01:12:49;7.70;;;5.47;;
37164;SDS011;23057;48.554;14.454;2022-12-18T01:15:20;4.68;;;4.20;;
37164;SDS011;23057;48.554;14.454;2022-12-18T01:17:52;9.30;;;5.03;;
37164;SDS011;23057;48.554;14.454;2022-12-18T01:20:23;7.05;;;4.50;;
37164;SDS011;23057;48.554;14.454;2022-12-18T01:22:54;7.43;;;4.22;;
37164;SDS011;23057;48.554;14.454;2022-12-18T01:25:25;6.15;;;4.43;;
37164;SDS011;23057;48.554;14.454;2022-12-18T01:27:56;9.98;;;5.75;;
37164;SDS011;23057;48.554;14.454;2022-12-18T01:30:26;7.38;;;4.45;;
37164;SDS011;23057;48.554;14.454;2022-12-18T01:32:57;10.32;;;5.15;;
37164;SDS011;23057;48.554;14.454;2022-12-18T01:35:28;4.72;;;3.85;;
37164;SDS011;23057;48.554;14.454;2022-12-18T01:37:59;10.50;;;4.35;;
37164;SDS011;23057;48.554;14.454;2022-12-18T01:40:30;11.27;;;5.53;;
37164;SDS011;23057;48.554;14.454;2022-12-18T01:43:00;11.00;;;5.07;;
37164;SDS011;23057;48.554;14.454;2022-12-18T01:45:31;5.28;;;4.05;;
37164;SDS011;23057;48.554;14.454;2022-12-18T01:48:06;10.45;;;5.95;;
37164;SDS011;23057;48.554;14.454;2022-12-18T01:50:40;12.00;;;5.15;;
37164;SDS011;23057;48.554;14.454;2022-12-18T01:53:14;4.15;;;3.55;;
37164;SDS011;23057;48.554;14.454;2022-12-18T01:55:53;5.43;;;3.08;;
37164;SDS011;23057;48.554;14.454;2022-12-18T02:01:41;2.92;;;2.40;;
37164;SDS011;23057;48.554;14.454;2022-12-18T02:04:19;5.03;;;3.22;;
37164;SDS011;23057;48.554;14.454;2022-12-18T02:12:31;7.90;;;3.08;;
37164;SDS011;23057;48.554;14.454;2022-12-18T02:18:48;8.10;;;5.13;;
37164;SDS011;23057;48.554;14.454;2022-12-18T02:28:34;8.02;;;3.78;;
37164;SDS011;23057;48.554;14.454;2022-12-18T02:31:17;5.20;;;3.40;;
37164;SDS011;23057;48.554;14.454;2022-12-18T02:33:58;7.80;;;4.82;;
37164;SDS011;23057;48.554;14.454;2022-12-18T02:36:34;8.05;;;5.22;;
37164;SDS011;23057;48.554;14.454;2022-12-18T02:39:11;7.35;;;4.43;;
37164;SDS011;23057;48.554;14.454;2022-12-18T02:41:45;7.03;;;4.20;;
37164;SDS011;23057;48.554;14.454;2022-12-18T02:44:18;5.72;;;4.38;;
37164;SDS011;23057;48.554;14.454;2022-12-18T02:46:50;3.65;;;3.30;;
37164;SDS011;23057;48.554;14.454;2022-12-18T02:49:31;5.13;;;4.63;;
37164;SDS011;23057;48.554;14.454;2022-12-18T02:55:23;13.52;;;5.07;;
37164;SDS011;23057;48.554;14.454;2022-12-18T02:58:40;7.78;;;5.45;;
37164;SDS011;23057;48.554;14.454;2022-12-18T03:01:26;9.10;;;3.47;;
37164;SDS011;23057;48.554;14.454;2022-12-18T03:04:18;6.28;;;3.88;;
37164;SDS011;23057;48.554;14.454;2022-12-18T03:07:34;8.05;;;3.78;;
37164;SDS011;23057;48.554;14.454;2022-12-18T03:10:15;8.48;;;5.32;;
37164;SDS011;23057;48.554;14.454;2022-12-18T03:13:02;9.85;;;5.18;;
37164;SDS011;23057;48.554;14.454;2022-12-18T03:15:42;9.93;;;3.95;;
37164;SDS011;23057;48.554;14.454;2022-12-18T03:18:27;9.55;;;4.65;;
37164;SDS011;23057;48.554;14.454;2022-12-18T03:21:08;10.20;;;4.25;;
37164;SDS011;23057;48.554;14.454;2022-12-18T03:23:46;9.00;;;4.45;;
37164;SDS011;23057;48.554;14.454;2022-12-18T03:26:23;10.10;;;6.30;;
37164;SDS011;23057;48.554;14.454;2022-12-18T03:29:00;7.50;;;2.72;;
37164;SDS011;23057;48.554;14.454;2022-12-18T03:31:48;7.18;;;4.95;;
37164;SDS011;23057;48.554;14.454;2022-12-18T03:34:30;11.88;;;5.68;;
37164;SDS011;23057;48.554;14.454;2022-12-18T03:37:08;10.55;;;5.00;;
37164;SDS011;23057;48.554;14.454;2022-12-18T03:39:39;4.45;;;4.00;;
37164;SDS011;23057;48.554;14.454;2022-12-18T03:42:14;7.38;;;4.80;;
37164;SDS011;23057;48.554;14.454;2022-12-18T03:45:36;5.32;;;3.97;;
37164;SDS011;23057;48.554;14.454;2022-12-18T03:48:28;5.45;;;4.50;;
37164;SDS011;23057;48.554;14.454;2022-12-18T03:51:38;5.53;;;3.78;;
37164;SDS011;23057;48.554;14.454;2022-12-18T03:54:27;11.45;;;5.20;;
37164;SDS011;23057;48.554;14.454;2022-12-18T03:57:09;8.57;;;3.90;;
37164;SDS011;23057;48.554;14.454;2022-12-18T03:59:52;6.32;;;4.70;;
37164;SDS011;23057;48.554;14.454;2022-12-18T04:02:32;8.05;;;3.72;;
37164;SDS011;23057;48.554;14.454;2022-12-18T04:05:08;8.02;;;6.07;;
37164;SDS011;23057;48.554;14.454;2022-12-18T04:07:43;3.63;;;3.33;;
37164;SDS011;23057;48.554;14.454;2022-12-18T04:10:18;8.43;;;5.07;;
37164;SDS011;23057;48.554;14.454;2022-12-18T04:12:49;9.27;;;5.68;;
37164;SDS011;23057;48.554;14.454;2022-12-18T04:15:20;4.85;;;3.63;;
37164;SDS011;23057;48.554;14.454;2022-12-18T04:17:51;15.48;;;6.65;;
37164;SDS011;23057;48.554;14.454;2022-12-18T04:20:22;9.32;;;4.68;;
37164;SDS011;23057;48.554;14.454;2022-12-18T04:22:53;8.60;;;5.65;;
37164;SDS011;23057;48.554;14.454;2022-12-18T04:25:24;6.00;;;4.57;;
37164;SDS011;23057;48.554;14.454;2022-12-18T04:27:54;6.60;;;4.32;;
37164;SDS011;23057;48.554;14.454;2022-12-18T04:30:25;7.30;;;3.92;;
37164;SDS011;23057;48.554;14.454;2022-12-18T04:32:56;5.63;;;3.15;;
37164;SDS011;23057;48.554;14.454;2022-12-18T04:35:27;11.52;;;4.93;;
37164;SDS011;23057;48.554;14.454;2022-12-18T04:37:58;12.77;;;6.53;;
37164;SDS011;23057;48.554;14.454;2022-12-18T04:40:29;10.02;;;4.05;;
37164;SDS011;23057;48.554;14.454;2022-12-18T04:42:59;4.03;;;3.20;;
37164;SDS011;23057;48.554;14.454;2022-12-18T04:45:31;8.02;;;3.92;;
37164;SDS011;23057;48.554;14.454;2022-12-18T04:48:02;10.98;;;4.38;;
37164;SDS011;23057;48.554;14.454;2022-12-18T04:50:34;4.20;;;3.47;;
37164;SDS011;23057;48.554;14.454;2022-12-18T04:53:05;8.68;;;3.88;;
37164;SDS011;23057;48.554;14.454;2022-12-18T04:55:36;7.32;;;4.32;;
37164;SDS011;23057;48.554;14.454;2022-12-18T04:58:07;5.65;;;4.10;;
37164;SDS011;23057;48.554;14.454;2022-12-18T05:00:37;6.90;;;5.47;;
37164;SDS011;23057;48.554;14.454;2022-12-18T05:03:08;4.50;;;3.95;;
37164;SDS011;23057;48.554;14.454;2022-12-18T05:05:39;8.75;;;3.67;;
37164;SDS011;23057;48.554;14.454;2022-12-18T05:08:10;3.95;;;3.22;;
37164;SDS011;23057;48.554;14.454;2022-12-18T05:10:41;4.15;;;2.60;;
37164;SDS011;23057;48.554;14.454;2022-12-18T05:13:11;5.57;;;4.13;;
37164;SDS011;23057;48.554;14.454;2022-12-18T05:15:42;5.68;;;4.05;;
37164;SDS011;23057;48.554;14.454;2022-12-18T05:18:23;4.38;;;3.58;;
37164;SDS011;23057;48.554;14.454;2022-12-18T05:20:54;3.67;;;3.35;;
37164;SDS011;23057;48.554;14.454;2022-12-18T05:23:26;8.57;;;4.45;;
37164;SDS011;23057;48.554;14.454;2022-12-18T05:26:01;5.75;;;4.05;;
37164;SDS011;23057;48.554;14.454;2022-12-18T05:28:36;6.13;;;3.72;;
37164;SDS011;23057;48.554;14.454;2022-12-18T05:31:07;10.88;;;5.75;;
37164;SDS011;23057;48.554;14.454;2022-12-18T05:33:38;7.25;;;4.60;;
37164;SDS011;23057;48.554;14.454;2022-12-18T05:36:09;10.52;;;6.25;;
37164;SDS011;23057;48.554;14.454;2022-12-18T05:38:41;12.50;;;5.00;;
37164;SDS011;23057;48.554;14.454;2022-12-18T05:41:12;6.57;;;5.10;;
37164;SDS011;23057;48.554;14.454;2022-12-18T05:43:43;4.72;;;3.42;;
37164;SDS011;23057;48.554;14.454;2022-12-18T05:46:15;6.85;;;4.80;;
37164;SDS011;23057;48.554;14.454;2022-12-18T05:48:48;12.20;;;5.28;;
37164;SDS011;23057;48.554;14.454;2022-12-18T05:51:20;8.73;;;7.88;;
37164;SDS011;23057;48.554;14.454;2022-12-18T05:53:52;5.25;;;4.50;;
37164;SDS011;23057;48.554;14.454;2022-12-18T05:56:23;8.30;;;4.82;;
37164;SDS011;23057;48.554;14.454;2022-12-18T05:58:54;6.22;;;4.90;;
37164;SDS011;23057;48.554;14.454;2022-12-18T06:01:26;12.30;;;5.38;;
37164;SDS011;23057;48.554;14.454;2022-12-18T06:03:57;9.07;;;4.25;;
37164;SDS011;23057;48.554;14.454;2022-12-18T06:06:28;8.18;;;5.60;;
37164;SDS011;23057;48.554;14.454;2022-12-18T06:08:59;7.22;;;4.63;;
37164;SDS011;23057;48.554;14.454;2022-12-18T06:11:31;6.28;;;4.07;;
37164;SDS011;23057;48.554;14.454;2022-12-18T06:14:02;7.50;;;3.45;;
37164;SDS011;23057;48.554;14.454;2022-12-18T06:16:36;6.50;;;4.63;;
37164;SDS011;23057;48.554;14.454;2022-12-18T06:19:07;5.10;;;4.32;;
37164;SDS011;23057;48.554;14.454;2022-12-18T06:21:37;12.65;;;5.10;;
37164;SDS011;23057;48.554;14.454;2022-12-18T06:24:08;8.02;;;4.80;;
37164;SDS011;23057;48.554;14.454;2022-12-18T06:26:40;9.25;;;3.95;;
37164;SDS011;23057;48.554;14.454;2022-12-18T06:29:11;10.20;;;5.40;;
37164;SDS011;23057;48.554;14.454;2022-12-18T06:31:42;4.70;;;3.97;;
37164;SDS011;23057;48.554;14.454;2022-12-18T06:34:12;6.13;;;3.88;;
37164;SDS011;23057;48.554;14.454;2022-12-18T06:36:43;6.75;;;4.07;;
37164;SDS011;23057;48.554;14.454;2022-12-18T06:39:14;12.05;;;5.15;;
37164;SDS011;23057;48.554;14.454;2022-12-18T06:41:45;4.32;;;3.83;;
37164;SDS011;23057;48.554;14.454;2022-12-18T06:44:16;3.88;;;3.15;;
37164;SDS011;23057;48.554;14.454;2022-12-18T06:46:46;8.70;;;4.45;;
37164;SDS011;23057;48.554;14.454;2022-12-18T06:49:17;5.78;;;3.35;;
37164;SDS011;23057;48.554;14.454;2022-12-18T06:51:48;7.95;;;4.72;;
37164;SDS011;23057;48.554;14.454;2022-12-18T06:54:19;12.65;;;5.88;;
37164;SDS011;23057;48.554;14.454;2022-12-18T06:56:50;9.85;;;5.88;;
37164;SDS011;23057;48.554;14.454;2022-12-18T06:59:21;5.57;;;3.72;;
37164;SDS011;23057;48.554;14.454;2022-12-18T07:01:52;9.48;;;5.90;;
37164;SDS011;23057;48.554;14.454;2022-12-18T07:04:27;15.95;;;9.15;;
37164;SDS011;23057;48.554;14.454;2022-12-18T07:07:01;13.65;;;5.80;;
37164;SDS011;23057;48.554;14.454;2022-12-18T07:09:32;5.93;;;3.63;;
37164;SDS011;23057;48.554;14.454;2022-12-18T07:12:03;9.88;;;4.95;;
37164;SDS011;23057;48.554;14.454;2022-12-18T07:14:34;8.68;;;5.32;;
37164;SDS011;23057;48.554;14.454;2022-12-18T07:17:05;10.52;;;4.45;;
37164;SDS011;23057;48.554;14.454;2022-12-18T07:19:36;11.88;;;4.63;;
37164;SDS011;23057;48.554;14.454;2022-12-18T07:22:07;9.30;;;4.88;;
37164;SDS011;23057;48.554;14.454;2022-12-18T07:24:38;14.55;;;6.07;;
37164;SDS011;23057;48.554;14.454;2022-12-18T07:27:09;9.23;;;4.70;;
37164;SDS011;23057;48.554;14.454;2022-12-18T07:29:39;6.50;;;4.20;;
37164;SDS011;23057;48.554;14.454;2022-12-18T07:32:10;7.13;;;4.25;;
37164;SDS011;23057;48.554;14.454;2022-12-18T07:34:41;4.22;;;3.75;;
37164;SDS011;23057;48.554;14.454;2022-12-18T07:37:12;7.82;;;3.13;;
37164;SDS011;23057;48.554;14.454;2022-12-18T07:39:43;7.00;;;4.47;;
37164;SDS011;23057;48.554;14.454;2022-12-18T07:42:14;10.35;;;4.55;;
37164;SDS011;23057;48.554;14.454;2022-12-18T07:45:00;14.43;;;6.03;;
37164;SDS011;23057;48.554;14.454;2022-12-18T07:47:35;4.53;;;3.72;;
37164;SDS011;23057;48.554;14.454;2022-12-18T07:50:07;7.50;;;4.93;;
37164;SDS011;23057;48.554;14.454;2022-12-18T07:52:38;11.52;;;5.53;;
37164;SDS011;23057;48.554;14.454;2022-12-18T07:55:09;6.85;;;3.92;;
37164;SDS011;23057;48.554;14.454;2022-12-18T07:57:40;7.82;;;5.00;;
37164;SDS011;23057;48.554;14.454;2022-12-18T08:00:11;18.65;;;5.20;;
37164;SDS011;23057;48.554;14.454;2022-12-18T08:02:43;17.58;;;5.80;;
37164;SDS011;23057;48.554;14.454;2022-12-18T08:05:14;79.55;;;28.83;;
37164;SDS011;23057;48.554;14.454;2022-12-18T08:07:45;85.15;;;28.77;;
37164;SDS011;23057;48.554;14.454;2022-12-18T08:10:16;66.85;;;22.55;;
37164;SDS011;23057;48.554;14.454;2022-12-18T08:12:50;84.28;;;28.10;;
37164;SDS011;23057;48.554;14.454;2022-12-18T08:15:22;14.02;;;7.00;;
37164;SDS011;23057;48.554;14.454;2022-12-18T08:17:55;8.23;;;5.88;;
37164;SDS011;23057;48.554;14.454;2022-12-18T08:20:27;9.38;;;4.80;;
37164;SDS011;23057;48.554;14.454;2022-12-18T08:22:58;5.68;;;3.65;;
37164;SDS011;23057;48.554;14.454;2022-12-18T08:25:28;8.15;;;5.05;;
37164;SDS011;23057;48.554;14.454;2022-12-18T08:27:59;22.10;;;10.40;;
37164;SDS011;23057;48.554;14.454;2022-12-18T08:30:30;18.73;;;10.15;;
37164;SDS011;23057;48.554;14.454;2022-12-18T08:33:01;31.15;;;11.32;;
37164;SDS011;23057;48.554;14.454;2022-12-18T08:35:36;13.32;;;6.78;;
37164;SDS011;23057;48.554;14.454;2022-12-18T08:38:07;34.17;;;22.50;;
37164;SDS011;23057;48.554;14.454;2022-12-18T08:40:38;16.50;;;9.45;;
37164;SDS011;23057;48.554;14.454;2022-12-18T08:43:09;9.93;;;6.60;;
37164;SDS011;23057;48.554;14.454;2022-12-18T08:46:00;10.65;;;5.18;;
37164;SDS011;23057;48.554;14.454;2022-12-18T08:48:39;9.27;;;6.10;;
37164;SDS011;23057;48.554;14.454;2022-12-18T08:51:10;8.95;;;3.83;;
37164;SDS011;23057;48.554;14.454;2022-12-18T08:53:41;17.70;;;7.25;;
37164;SDS011;23057;48.554;14.454;2022-12-18T08:56:13;18.95;;;9.00;;
37164;SDS011;23057;48.554;14.454;2022-12-18T08:58:45;12.30;;;7.07;;
37164;SDS011;23057;48.554;14.454;2022-12-18T09:01:16;22.80;;;11.02;;
37164;SDS011;23057;48.554;14.454;2022-12-18T09:03:48;23.45;;;11.73;;
37164;SDS011;23057;48.554;14.454;2022-12-18T09:06:20;11.32;;;7.55;;
37164;SDS011;23057;48.554;14.454;2022-12-18T09:08:53;18.52;;;8.70;;
37164;SDS011;23057;48.554;14.454;2022-12-18T09:11:24;11.45;;;6.18;;
37164;SDS011;23057;48.554;14.454;2022-12-18T09:13:59;11.48;;;5.75;;
37164;SDS011;23057;48.554;14.454;2022-12-18T09:16:31;7.93;;;4.93;;
37164;SDS011;23057;48.554;14.454;2022-12-18T09:19:05;15.00;;;5.70;;
37164;SDS011;23057;48.554;14.454;2022-12-18T09:21:36;11.13;;;5.28;;
37164;SDS011;23057;48.554;14.454;2022-12-18T09:24:10;10.05;;;5.38;;
37164;SDS011;23057;48.554;14.454;2022-12-18T09:26:44;7.15;;;4.38;;
37164;SDS011;23057;48.554;14.454;2022-12-18T09:29:15;13.77;;;5.85;;
37164;SDS011;23057;48.554;14.454;2022-12-18T09:31:46;10.77;;;4.85;;
37164;SDS011;23057;48.554;14.454;2022-12-18T09:34:17;11.13;;;5.03;;
37164;SDS011;23057;48.554;14.454;2022-12-18T09:36:48;12.48;;;5.10;;
37164;SDS011;23057;48.554;14.454;2022-12-18T09:39:20;11.90;;;5.45;;
37164;SDS011;23057;48.554;14.454;2022-12-18T09:41:51;69.55;;;22.13;;
37164;SDS011;23057;48.554;14.454;2022-12-18T09:44:29;202.77;;;56.58;;
37164;SDS011;23057;48.554;14.454;2022-12-18T09:53:22;132.02;;;43.80;;
37164;SDS011;23057;48.554;14.454;2022-12-18T09:56:04;97.65;;;28.35;;
37164;SDS011;23057;48.554;14.454;2022-12-18T09:58:50;194.55;;;59.40;;
37164;SDS011;23057;48.554;14.454;2022-12-18T10:01:31;180.35;;;55.25;;
37164;SDS011;23057;48.554;14.454;2022-12-18T10:04:04;212.40;;;59.05;;
37164;SDS011;23057;48.554;14.454;2022-12-18T10:07:22;73.50;;;24.70;;
37164;SDS011;23057;48.554;14.454;2022-12-18T10:10:10;43.45;;;17.10;;
37164;SDS011;23057;48.554;14.454;2022-12-18T10:13:18;44.78;;;17.60;;
37164;SDS011;23057;48.554;14.454;2022-12-18T10:16:16;23.75;;;13.15;;
37164;SDS011;23057;48.554;14.454;2022-12-18T10:19:18;13.55;;;8.02;;
37164;SDS011;23057;48.554;14.454;2022-12-18T10:25:15;62.85;;;25.38;;
37164;SDS011;23057;48.554;14.454;2022-12-18T10:28:00;63.40;;;22.05;;
37164;SDS011;23057;48.554;14.454;2022-12-18T10:30:45;54.28;;;20.15;;
37164;SDS011;23057;48.554;14.454;2022-12-18T10:33:18;31.55;;;14.90;;
37164;SDS011;23057;48.554;14.454;2022-12-18T10:35:54;10.50;;;6.80;;
37164;SDS011;23057;48.554;14.454;2022-12-18T10:46:53;13.95;;;5.88;;
37164;SDS011;23057;48.554;14.454;2022-12-18T10:49:33;10.23;;;5.15;;
37164;SDS011;23057;48.554;14.454;2022-12-18T10:52:18;15.98;;;5.65;;
37164;SDS011;23057;48.554;14.454;2022-12-18T10:54:55;10.38;;;5.35;;
37164;SDS011;23057;48.554;14.454;2022-12-18T11:00:22;10.40;;;5.18;;
37164;SDS011;23057;48.554;14.454;2022-12-18T11:02:59;9.35;;;5.18;;
37164;SDS011;23057;48.554;14.454;2022-12-18T11:05:31;8.30;;;4.78;;
37164;SDS011;23057;48.554;14.454;2022-12-18T11:08:03;7.95;;;4.78;;
37164;SDS011;23057;48.554;14.454;2022-12-18T11:10:37;9.35;;;5.07;;
37164;SDS011;23057;48.554;14.454;2022-12-18T11:15:52;11.25;;;5.60;;
37164;SDS011;23057;48.554;14.454;2022-12-18T11:21:06;9.02;;;4.18;;
37164;SDS011;23057;48.554;14.454;2022-12-18T11:23:51;11.40;;;5.13;;
37164;SDS011;23057;48.554;14.454;2022-12-18T11:26:32;12.25;;;5.40;;
37164;SDS011;23057;48.554;14.454;2022-12-18T11:29:10;11.82;;;5.05;;
37164;SDS011;23057;48.554;14.454;2022-12-18T11:32:04;31.17;;;11.98;;
37164;SDS011;23057;48.554;14.454;2022-12-18T11:35:11;53.67;;;16.58;;
37164;SDS011;23057;48.554;14.454;2022-12-18T11:38:11;21.90;;;9.68;;
37164;SDS011;23057;48.554;14.454;2022-12-18T11:41:16;10.20;;;4.93;;
37164;SDS011;23057;48.554;14.454;2022-12-18T11:44:29;10.65;;;5.47;;
37164;SDS011;23057;48.554;14.454;2022-12-18T11:47:15;10.82;;;5.07;;
37164;SDS011;23057;48.554;14.454;2022-12-18T11:50:11;10.80;;;5.20;;
37164;SDS011;23057;48.554;14.454;2022-12-18T11:52:54;9.07;;;5.05;;
37164;SDS011;23057;48.554;14.454;2022-12-18T11:55:30;161.73;;;45.90;;
37164;SDS011;23057;48.554;14.454;2022-12-18T11:58:47;232.32;;;74.38;;
37164;SDS011;23057;48.554;14.454;2022-12-18T12:23:41;46.22;;;17.80;;
37164;SDS011;23057;48.554;14.454;2022-12-18T12:27:02;21.45;;;10.90;;
37164;SDS011;23057;48.554;14.454;2022-12-18T12:30:20;15.95;;;6.93;;
37164;SDS011;23057;48.554;14.454;2022-12-18T12:41:25;11.73;;;4.90;;
37164;SDS011;23057;48.554;14.454;2022-12-18T12:44:24;9.25;;;6.25;;
37164;SDS011;23057;48.554;14.454;2022-12-18T12:47:28;10.40;;;5.85;;
37164;SDS011;23057;48.554;14.454;2022-12-18T12:50:15;10.55;;;6.25;;
37164;SDS011;23057;48.554;14.454;2022-12-18T12:52:52;8.27;;;4.68;;
37164;SDS011;23057;48.554;14.454;2022-12-18T12:55:27;10.35;;;5.88;;
37164;SDS011;23057;48.554;14.454;2022-12-18T13:01:12;9.65;;;5.20;;
37164;SDS011;23057;48.554;14.454;2022-12-18T13:06:59;12.55;;;6.05;;
37164;SDS011;23057;48.554;14.454;2022-12-18T13:15:38;10.02;;;4.85;;
37164;SDS011;23057;48.554;14.454;2022-12-18T13:18:20;7.88;;;4.40;;
37164;SDS011;23057;48.554;14.454;2022-12-18T13:23:29;9.52;;;4.30;;
37164;SDS011;23057;48.554;14.454;2022-12-18T13:31:57;15.82;;;6.72;;
37164;SDS011;23057;48.554;14.454;2022-12-18T13:36:53;12.40;;;5.70;;
37164;SDS011;23057;48.554;14.454;2022-12-18T13:39:33;12.98;;;5.90;;
37164;SDS011;23057;48.554;14.454;2022-12-18T13:44:36;15.30;;;7.32;;
37164;SDS011;23057;48.554;14.454;2022-12-18T13:50:26;16.52;;;6.90;;
37164;SDS011;23057;48.554;14.454;2022-12-18T13:52:57;18.70;;;7.22;;
37164;SDS011;23057;48.554;14.454;2022-12-18T13:55:28;12.55;;;6.18;;
37164;SDS011;23057;48.554;14.454;2022-12-18T13:58:03;10.00;;;5.70;;
37164;SDS011;23057;48.554;14.454;2022-12-18T14:00:40;11.63;;;5.57;;
37164;SDS011;23057;48.554;14.454;2022-12-18T14:03:20;12.93;;;6.15;;
37164;SDS011;23057;48.554;14.454;2022-12-18T14:06:00;9.90;;;5.45;;
37164;SDS011;23057;48.554;14.454;2022-12-18T14:08:39;9.48;;;5.80;;
37164;SDS011;23057;48.554;14.454;2022-12-18T14:11:18;12.65;;;5.43;;
37164;SDS011;23057;48.554;14.454;2022-12-18T14:13:52;11.00;;;5.18;;
37164;SDS011;23057;48.554;14.454;2022-12-18T14:16:23;13.35;;;5.53;;
37164;SDS011;23057;48.554;14.454;2022-12-18T14:18:55;8.93;;;4.93;;
37164;SDS011;23057;48.554;14.454;2022-12-18T14:21:29;12.63;;;5.57;;
37164;SDS011;23057;48.554;14.454;2022-12-18T14:24:03;14.20;;;5.97;;
37164;SDS011;23057;48.554;14.454;2022-12-18T14:26:48;11.63;;;6.30;;
37164;SDS011;23057;48.554;14.454;2022-12-18T14:29:22;12.15;;;5.82;;
37164;SDS011;23057;48.554;14.454;2022-12-18T14:32:12;9.97;;;5.90;;
37164;SDS011;23057;48.554;14.454;2022-12-18T14:34:49;9.65;;;5.55;;
37164;SDS011;23057;48.554;14.454;2022-12-18T14:37:24;11.40;;;5.15;;
37164;SDS011;23057;48.554;14.454;2022-12-18T14:39:58;13.73;;;5.57;;
37164;SDS011;23057;48.554;14.454;2022-12-18T14:42:32;36.30;;;11.90;;
37164;SDS011;23057;48.554;14.454;2022-12-18T14:48:18;19.05;;;9.98;;
37164;SDS011;23057;48.554;14.454;2022-12-18T14:51:04;25.00;;;12.70;;
37164;SDS011;23057;48.554;14.454;2022-12-18T14:53:55;18.35;;;9.73;;
37164;SDS011;23057;48.554;14.454;2022-12-18T14:56:45;15.70;;;7.65;;
37164;SDS011;23057;48.554;14.454;2022-12-18T14:59:23;14.48;;;7.00;;
37164;SDS011;23057;48.554;14.454;2022-12-18T15:01:59;14.45;;;6.38;;
37164;SDS011;23057;48.554;14.454;2022-12-18T15:07:59;12.27;;;6.25;;
37164;SDS011;23057;48.554;14.454;2022-12-18T15:10:33;12.45;;;6.72;;
37164;SDS011;23057;48.554;14.454;2022-12-18T15:20:52;13.05;;;5.93;;
37164;SDS011;23057;48.554;14.454;2022-12-18T15:23:38;12.13;;;5.72;;
37164;SDS011;23057;48.554;14.454;2022-12-18T15:26:23;13.07;;;6.38;;
37164;SDS011;23057;48.554;14.454;2022-12-18T15:28:54;11.82;;;6.40;;
37164;SDS011;23057;48.554;14.454;2022-12-18T15:31:35;14.82;;;6.35;;
37164;SDS011;23057;48.554;14.454;2022-12-18T15:34:10;14.73;;;7.28;;
37164;SDS011;23057;48.554;14.454;2022-12-18T15:36:53;16.50;;;7.57;;
37164;SDS011;23057;48.554;14.454;2022-12-18T15:39:24;16.38;;;7.32;;
37164;SDS011;23057;48.554;14.454;2022-12-18T15:41:55;17.70;;;7.55;;
37164;SDS011;23057;48.554;14.454;2022-12-18T15:44:45;15.65;;;7.32;;
37164;SDS011;23057;48.554;14.454;2022-12-18T15:47:16;10.10;;;5.95;;
37164;SDS011;23057;48.554;14.454;2022-12-18T15:49:47;15.55;;;7.68;;
37164;SDS011;23057;48.554;14.454;2022-12-18T15:52:18;18.23;;;8.38;;
37164;SDS011;23057;48.554;14.454;2022-12-18T15:54:55;12.90;;;6.82;;
37164;SDS011;23057;48.554;14.454;2022-12-18T15:57:45;14.55;;;6.95;;
37164;SDS011;23057;48.554;14.454;2022-12-18T16:00:16;15.63;;;6.72;;
37164;SDS011;23057;48.554;14.454;2022-12-18T16:02:47;13.57;;;5.85;;
37164;SDS011;23057;48.554;14.454;2022-12-18T16:05:19;13.25;;;6.57;;
37164;SDS011;23057;48.554;14.454;2022-12-18T16:07:51;17.30;;;6.32;;
37164;SDS011;23057;48.554;14.454;2022-12-18T16:10:22;12.80;;;6.70;;
37164;SDS011;23057;48.554;14.454;2022-12-18T16:12:56;11.80;;;6.07;;
37164;SDS011;23057;48.554;14.454;2022-12-18T16:15:27;17.65;;;6.90;;
37164;SDS011;23057;48.554;14.454;2022-12-18T16:17:57;14.95;;;6.32;;
37164;SDS011;23057;48.554;14.454;2022-12-18T16:20:28;11.10;;;6.85;;
37164;SDS011;23057;48.554;14.454;2022-12-18T16:22:59;13.93;;;7.32;;
37164;SDS011;23057;48.554;14.454;2022-12-18T16:25:30;16.52;;;6.90;;
37164;SDS011;23057;48.554;14.454;2022-12-18T16:28:02;15.63;;;7.40;;
37164;SDS011;23057;48.554;14.454;2022-12-18T16:30:32;16.60;;;7.20;;
37164;SDS011;23057;48.554;14.454;2022-12-18T16:33:03;17.45;;;7.35;;
37164;SDS011;23057;48.554;14.454;2022-12-18T16:35:34;18.67;;;7.28;;
37164;SDS011;23057;48.554;14.454;2022-12-18T16:38:07;25.25;;;8.75;;
37164;SDS011;23057;48.554;14.454;2022-12-18T16:40:37;18.80;;;8.82;;
37164;SDS011;23057;48.554;14.454;2022-12-18T16:43:28;23.70;;;9.00;;
37164;SDS011;23057;48.554;14.454;2022-12-18T16:45:59;14.25;;;8.05;;
37164;SDS011;23057;48.554;14.454;2022-12-18T16:48:30;13.00;;;7.28;;
37164;SDS011;23057;48.554;14.454;2022-12-18T16:51:02;20.55;;;9.23;;
37164;SDS011;23057;48.554;14.454;2022-12-18T16:53:35;19.92;;;8.38;;
37164;SDS011;23057;48.554;14.454;2022-12-18T16:56:06;16.08;;;7.60;;
37164;SDS011;23057;48.554;14.454;2022-12-18T16:58:36;21.23;;;8.82;;
37164;SDS011;23057;48.554;14.454;2022-12-18T17:01:08;10.88;;;6.20;;
37164;SDS011;23057;48.554;14.454;2022-12-18T17:03:40;15.95;;;6.32;;
37164;SDS011;23057;48.554;14.454;2022-12-18T17:06:11;17.02;;;6.82;;
37164;SDS011;23057;48.554;14.454;2022-12-18T17:08:42;17.67;;;7.47;;
37164;SDS011;23057;48.554;14.454;2022-12-18T17:11:13;16.83;;;7.47;;
37164;SDS011;23057;48.554;14.454;2022-12-18T17:13:44;14.23;;;6.93;;
37164;SDS011;23057;48.554;14.454;2022-12-18T17:16:15;14.45;;;7.30;;
37164;SDS011;23057;48.554;14.454;2022-12-18T17:18:47;17.42;;;8.60;;
37164;SDS011;23057;48.554;14.454;2022-12-18T17:21:18;21.33;;;8.52;;